createdAt,value
2023-01-09T00:00:05.112Z,502.70
2023-01-09T00:00:38.470Z,495.42
2023-01-09T00:01:17.630Z,492.02
2023-01-09T00:01:52.476Z,497.90
2023-01-09T00:02:26.117Z,490.73
2023-01-09T00:02:59.448Z,495.50
2023-01-09T00:03:32.551Z,502.15
2023-01-09T00:04:06.757Z,489.58
2023-01-09T00:04:40.147Z,503.70
2023-01-09T00:05:14.717Z,504.08
2023-01-09T00:05:48.000Z,503.00
2023-01-09T00:06:21.284Z,497.98
2023-01-09T00:09:23.875Z,486.25
2023-01-09T00:09:57.439Z,490.83
2023-01-09T00:10:30.828Z,495.73
2023-01-09T00:11:04.207Z,482.88
2023-01-09T00:11:38.001Z,480.38
2023-01-09T00:12:11.277Z,500.17
2023-01-09T00:12:44.666Z,497.08
2023-01-09T00:13:18.664Z,490.60
2023-01-09T00:13:51.748Z,487.75
2023-01-09T00:14:25.222Z,500.98
2023-01-09T00:14:58.502Z,510.73
2023-01-09T00:15:31.996Z,502.48
2023-01-09T00:16:05.981Z,504.30
2023-01-09T00:16:39.222Z,503.17
2023-01-09T00:17:12.648Z,504.45
2023-01-09T00:17:48.388Z,498.20
2023-01-09T00:18:21.871Z,512.42
2023-01-09T00:18:55.458Z,503.55
2023-01-09T00:19:28.741Z,509.15
2023-01-09T00:20:02.128Z,508.00
2023-01-09T00:20:36.020Z,501.98
2023-01-09T00:21:10.830Z,509.58
2023-01-09T00:21:44.004Z,507.67
2023-01-09T00:22:17.397Z,495.77
2023-01-09T00:22:50.902Z,507.73
2023-01-09T00:23:24.161Z,513.17
2023-01-09T00:23:57.344Z,498.15
2023-01-09T00:24:30.921Z,494.48
2023-01-09T00:25:04.509Z,511.58
2023-01-09T00:25:37.788Z,511.33
2023-01-09T00:26:13.338Z,497.27
2023-01-09T00:26:46.701Z,506.95
2023-01-09T00:27:20.051Z,503.23
2023-01-09T00:27:53.886Z,509.40
2023-01-09T00:28:27.464Z,498.45
2023-01-09T00:29:01.562Z,492.27
2023-01-09T00:29:35.054Z,509.48
2023-01-09T00:30:08.658Z,501.38
2023-01-09T00:30:42.167Z,504.30
2023-01-09T00:31:15.715Z,509.45
2023-01-09T00:31:49.092Z,495.02
2023-01-09T00:32:22.576Z,505.88
2023-01-09T00:32:56.785Z,500.83
2023-01-09T00:33:32.621Z,507.75
2023-01-09T00:34:07.432Z,499.08
2023-01-09T00:34:40.613Z,509.30
2023-01-09T00:35:16.679Z,500.10
2023-01-09T00:35:50.140Z,496.35
2023-01-09T00:36:23.526Z,498.05
2023-01-09T00:36:57.113Z,505.02
2023-01-09T00:37:30.292Z,508.60
2023-01-09T00:38:04.183Z,507.75
2023-01-09T00:38:37.880Z,499.55
2023-01-09T00:39:11.362Z,508.70
2023-01-09T00:39:44.538Z,495.80
2023-01-09T00:40:18.024Z,504.88
2023-01-09T00:40:51.509Z,498.65
2023-01-09T00:41:30.419Z,507.42
2023-01-09T00:42:03.699Z,492.25
2023-01-09T00:42:37.356Z,505.70
2023-01-09T00:43:10.671Z,501.98
2023-01-09T00:43:46.000Z,501.55
2023-01-09T00:44:24.505Z,507.55
2023-01-09T00:44:59.626Z,503.20
2023-01-09T00:45:33.011Z,509.67
2023-01-09T00:46:07.576Z,505.45
2023-01-09T00:46:43.352Z,507.20
2023-01-09T00:47:25.651Z,499.40
2023-01-09T00:48:02.718Z,498.30
2023-01-09T00:48:37.839Z,493.13
2023-01-09T00:49:12.656Z,499.25
2023-01-09T00:49:46.449Z,500.73
2023-01-09T00:50:22.801Z,500.75
2023-01-09T00:50:59.048Z,501.98
2023-01-09T00:51:32.280Z,496.88
2023-01-09T00:52:07.426Z,491.92
2023-01-09T00:52:40.945Z,489.75
2023-01-09T00:53:15.242Z,504.20
2023-01-09T00:53:49.782Z,502.90
2023-01-09T00:54:23.345Z,489.02
2023-01-09T00:54:58.358Z,505.88
2023-01-09T00:55:31.745Z,503.50
2023-01-09T00:56:07.790Z,500.40
2023-01-09T00:56:41.578Z,498.60
2023-01-09T00:57:15.270Z,491.58
2023-01-09T00:57:48.753Z,497.77
2023-01-09T00:58:22.237Z,493.80
2023-01-09T00:58:55.929Z,489.75
2023-01-09T00:59:29.244Z,500.58
2023-01-09T01:00:02.897Z,497.35
2023-01-09T01:00:36.282Z,494.80
2023-01-09T01:01:09.958Z,497.90
2023-01-09T01:01:43.422Z,503.48
2023-01-09T01:02:16.764Z,502.10
2023-01-09T01:02:50.151Z,493.38
2023-01-09T01:03:23.505Z,490.65
2023-01-09T01:03:57.295Z,500.90
2023-01-09T01:04:49.212Z,502.45
2023-01-09T01:05:41.036Z,490.88
2023-01-09T01:06:40.112Z,496.42
2023-01-09T01:07:31.652Z,497.25
2023-01-09T01:08:10.838Z,480.27
2023-01-09T01:08:45.247Z,492.15
2023-01-09T01:09:18.625Z,497.08
2023-01-09T01:09:51.914Z,495.60
2023-01-09T01:10:26.311Z,498.98
2023-01-09T01:10:59.594Z,500.55
2023-01-09T01:11:33.792Z,495.63
2023-01-09T01:12:07.723Z,498.23
2023-01-09T01:12:41.491Z,495.02
2023-01-09T01:13:15.282Z,501.67
2023-01-09T01:13:48.552Z,498.17
2023-01-09T01:14:21.836Z,500.88
2023-01-09T01:14:55.334Z,502.45
2023-01-09T01:15:30.031Z,504.15
2023-01-09T01:16:07.595Z,500.92
2023-01-09T01:16:41.686Z,500.55
2023-01-09T01:17:15.097Z,498.95
2023-01-09T01:17:48.678Z,491.75
2023-01-09T01:18:21.989Z,497.63
2023-01-09T01:18:55.194Z,501.90
2023-01-09T01:19:28.525Z,498.83
2023-01-09T01:20:01.911Z,490.27
2023-01-09T01:20:35.188Z,505.13
2023-01-09T01:21:09.288Z,504.10
2023-01-09T01:21:42.574Z,491.02
2023-01-09T01:22:15.753Z,494.00
2023-01-09T01:22:49.129Z,491.77
2023-01-09T01:23:22.711Z,496.17
2023-01-09T01:23:55.995Z,492.33
2023-01-09T01:24:29.287Z,503.20
2023-01-09T01:25:02.962Z,499.45
2023-01-09T01:25:37.573Z,502.02
2023-01-09T01:26:15.568Z,502.13
2023-01-09T01:26:48.848Z,500.75
2023-01-09T01:27:22.441Z,501.20
2023-01-09T01:27:55.817Z,492.60
2023-01-09T01:28:29.097Z,497.52
2023-01-09T01:29:02.380Z,497.85
2023-01-09T01:29:35.557Z,497.13
2023-01-09T01:30:10.060Z,495.58
2023-01-09T01:30:44.182Z,499.80
2023-01-09T01:31:19.421Z,502.33
2023-01-09T01:31:52.870Z,494.30
2023-01-09T01:32:26.116Z,500.73
2023-01-09T01:32:59.641Z,496.55
2023-01-09T01:33:33.228Z,502.98
2023-01-09T01:34:06.506Z,501.40
2023-01-09T01:34:39.788Z,492.27
2023-01-09T01:35:13.083Z,493.35
2023-01-09T01:35:46.351Z,493.05
2023-01-09T01:36:19.633Z,498.08
2023-01-09T01:36:53.013Z,503.13
2023-01-09T01:37:26.595Z,493.77
2023-01-09T01:38:00.114Z,495.75
2023-01-09T01:38:33.979Z,494.48
2023-01-09T01:39:07.156Z,498.60
2023-01-09T01:39:40.536Z,488.83
2023-01-09T01:40:13.797Z,485.63
2023-01-09T01:40:53.355Z,498.05
2023-01-09T01:41:32.568Z,491.98
2023-01-09T01:42:06.203Z,498.15
2023-01-09T01:42:45.879Z,485.83
2023-01-09T01:43:19.159Z,494.90
2023-01-09T01:43:54.400Z,484.88
2023-01-09T01:44:46.267Z,491.90
2023-01-09T01:45:23.790Z,503.02
2023-01-09T01:45:56.888Z,494.75
2023-01-09T01:46:30.865Z,493.45
2023-01-09T01:47:04.036Z,495.25
2023-01-09T01:47:41.002Z,492.65
2023-01-09T01:48:18.988Z,495.17
2023-01-09T01:48:54.833Z,495.52
2023-01-09T01:49:28.013Z,492.55
2023-01-09T01:50:03.752Z,490.55
2023-01-09T01:50:50.849Z,492.48
2023-01-09T01:51:25.665Z,496.13
2023-01-09T01:52:00.353Z,483.40
2023-01-09T01:52:35.305Z,490.13
2023-01-09T01:53:08.378Z,492.77
2023-01-09T01:53:48.513Z,493.63
2023-01-09T01:54:23.854Z,490.80
2023-01-09T01:54:57.122Z,486.77
2023-01-09T01:55:30.718Z,495.42
2023-01-09T01:56:10.335Z,491.20
2023-01-09T01:56:45.675Z,489.60
2023-01-09T01:57:19.259Z,496.85
2023-01-09T01:57:56.530Z,500.05
2023-01-09T01:58:30.527Z,494.25
2023-01-09T01:59:09.481Z,493.98
2023-01-09T01:59:50.706Z,493.98
2023-01-09T02:00:26.547Z,499.38
2023-01-09T02:00:59.931Z,486.80
2023-01-09T02:01:34.398Z,486.77
2023-01-09T02:02:08.599Z,491.73
2023-01-09T02:02:43.884Z,501.55
2023-01-09T02:03:19.400Z,497.70
2023-01-09T02:03:54.212Z,486.17
2023-01-09T02:04:27.903Z,493.02
2023-01-09T02:05:02.436Z,498.15
2023-01-09T02:05:36.717Z,487.55
2023-01-09T02:06:10.518Z,488.63
2023-01-09T02:06:45.016Z,499.48
2023-01-09T02:07:18.501Z,491.38
2023-01-09T02:07:51.683Z,496.08
2023-01-09T02:08:25.066Z,494.67
2023-01-09T02:08:58.449Z,490.88
2023-01-09T02:09:31.829Z,497.25
2023-01-09T02:10:05.524Z,493.33
2023-01-09T02:10:39.924Z,498.33
2023-01-09T02:11:15.047Z,496.58
2023-01-09T02:11:49.767Z,490.05
2023-01-09T02:12:24.576Z,496.25
2023-01-09T02:12:57.861Z,492.90
2023-01-09T02:13:31.341Z,497.67
2023-01-09T02:14:04.636Z,496.02
2023-01-09T02:14:38.169Z,483.95
2023-01-09T02:15:13.028Z,481.25
2023-01-09T02:15:58.309Z,483.42
2023-01-09T02:16:40.172Z,488.83
2023-01-09T02:17:22.355Z,489.23
2023-01-09T02:18:01.376Z,487.42
2023-01-09T02:18:34.757Z,477.45
2023-01-09T02:19:14.082Z,494.80
2023-01-09T02:19:54.831Z,488.95
2023-01-09T02:20:28.134Z,497.45
2023-01-09T02:21:09.071Z,496.35
2023-01-09T02:21:45.118Z,494.45
2023-01-09T02:22:30.480Z,491.65
2023-01-09T02:23:19.943Z,479.75
2023-01-09T02:24:28.244Z,493.33
2023-01-09T02:25:19.554Z,495.10
2023-01-09T02:25:53.032Z,491.63
2023-01-09T02:26:44.340Z,493.63
2023-01-09T02:27:26.519Z,496.48
2023-01-09T02:28:02.886Z,490.13
2023-01-09T02:28:59.813Z,480.92
2023-01-09T02:29:38.927Z,497.42
2023-01-09T02:30:14.791Z,482.05
2023-01-09T02:30:58.283Z,490.67
2023-01-09T02:31:49.978Z,489.15
2023-01-09T02:32:25.941Z,490.08
2023-01-09T02:32:59.192Z,482.27
2023-01-09T02:33:48.383Z,490.63
2023-01-09T02:34:33.738Z,487.58
2023-01-09T02:35:19.200Z,490.75
2023-01-09T02:36:05.690Z,486.50
2023-01-09T02:36:38.871Z,493.40
2023-01-09T02:37:30.098Z,496.38
2023-01-09T02:38:03.456Z,500.10
2023-01-09T02:38:48.617Z,486.67
2023-01-09T02:39:27.326Z,482.20
2023-01-09T02:40:12.480Z,499.98
2023-01-09T02:41:00.133Z,486.48
2023-01-09T02:41:53.870Z,492.17
2023-01-09T02:42:27.753Z,485.67
2023-01-09T02:43:01.768Z,494.02
2023-01-09T02:43:35.339Z,497.08
2023-01-09T02:44:14.462Z,495.90
2023-01-09T02:44:47.734Z,487.13
2023-01-09T02:45:21.318Z,490.90
2023-01-09T02:45:54.775Z,496.50
2023-01-09T02:46:28.104Z,498.75
2023-01-09T02:47:02.700Z,491.75
2023-01-09T02:47:37.511Z,494.48
2023-01-09T02:48:11.916Z,492.67
2023-01-09T02:48:45.912Z,504.05
2023-01-09T02:49:19.303Z,506.30
2023-01-09T02:49:54.114Z,502.15
2023-01-09T02:50:46.745Z,503.23
2023-01-09T02:51:26.889Z,500.75
2023-01-09T02:52:23.104Z,502.02
2023-01-09T02:53:14.917Z,489.25
2023-01-09T02:54:06.630Z,490.75
2023-01-09T02:54:59.576Z,491.67
2023-01-09T02:55:42.176Z,495.85
2023-01-09T02:56:18.323Z,484.70
2023-01-09T02:57:09.019Z,497.50
2023-01-09T02:57:54.472Z,496.83
2023-01-09T02:58:30.523Z,492.70
2023-01-09T02:59:26.432Z,497.25
2023-01-09T03:00:02.787Z,487.67
2023-01-09T03:00:36.372Z,495.42
2023-01-09T03:01:28.134Z,500.42
2023-01-09T03:02:08.950Z,498.38
2023-01-09T03:02:42.335Z,495.17
2023-01-09T03:03:30.655Z,484.85
2023-01-09T03:04:09.365Z,485.55
2023-01-09T03:04:45.823Z,496.08
2023-01-09T03:05:23.300Z,501.85
2023-01-09T03:06:05.593Z,489.55
2023-01-09T03:07:01.498Z,489.38
2023-01-09T03:07:40.408Z,499.17
2023-01-09T03:08:19.233Z,491.10
2023-01-09T03:08:55.471Z,493.63
2023-01-09T03:09:30.097Z,489.98
2023-01-09T03:10:09.916Z,490.65
2023-01-09T03:10:47.611Z,493.17
2023-01-09T03:11:22.734Z,501.25
2023-01-09T03:12:28.465Z,494.05
2023-01-09T03:13:03.499Z,485.90
2023-01-09T03:13:41.987Z,488.95
2023-01-09T03:14:17.316Z,488.67
2023-01-09T03:14:52.242Z,498.48
2023-01-09T03:15:28.383Z,491.13
2023-01-09T03:16:03.857Z,484.08
2023-01-09T03:16:38.578Z,484.45
2023-01-09T03:17:13.459Z,487.95
2023-01-09T03:17:48.360Z,484.92
2023-01-09T03:18:23.180Z,492.75
2023-01-09T03:18:57.138Z,495.40
2023-01-09T03:19:31.892Z,492.92
2023-01-09T03:20:07.428Z,492.02
2023-01-09T03:20:41.729Z,494.27
2023-01-09T03:21:15.413Z,487.42
2023-01-09T03:21:49.922Z,495.58
2023-01-09T03:22:23.408Z,495.83
2023-01-09T03:22:57.511Z,492.83
2023-01-09T03:23:45.947Z,489.83
2023-01-09T03:24:19.228Z,484.92
2023-01-09T03:24:52.405Z,489.33
2023-01-09T03:25:26.502Z,482.98
2023-01-09T03:25:59.886Z,489.70
2023-01-09T03:26:33.166Z,488.58
2023-01-09T03:27:10.034Z,488.02
2023-01-09T03:27:43.309Z,494.88
2023-01-09T03:28:25.610Z,492.75
2023-01-09T03:28:59.088Z,494.52
2023-01-09T03:29:32.568Z,495.60
2023-01-09T03:30:06.065Z,497.85
2023-01-09T03:30:39.242Z,497.58
2023-01-09T03:31:12.585Z,496.27
2023-01-09T03:31:45.802Z,497.00
2023-01-09T03:32:19.585Z,496.27
2023-01-09T03:32:52.974Z,495.90
2023-01-09T03:33:26.349Z,492.13
2023-01-09T03:33:59.835Z,492.77
2023-01-09T03:34:33.117Z,491.67
2023-01-09T03:35:06.707Z,497.23
2023-01-09T03:35:40.191Z,496.80
2023-01-09T03:36:14.399Z,493.17
2023-01-09T03:36:47.687Z,496.80
2023-01-09T03:37:21.058Z,496.63
2023-01-09T03:37:54.751Z,491.42
2023-01-09T03:38:27.922Z,492.50
2023-01-09T03:39:01.126Z,493.65
2023-01-09T03:39:34.487Z,493.85
2023-01-09T03:40:08.276Z,490.65
2023-01-09T03:40:43.835Z,504.67
2023-01-09T03:41:17.293Z,505.70
2023-01-09T03:41:50.471Z,501.27
2023-01-09T03:42:23.648Z,498.63
2023-01-09T03:42:56.928Z,500.67
2023-01-09T03:43:30.327Z,499.15
2023-01-09T03:44:03.547Z,501.77
2023-01-09T03:44:36.975Z,504.08
2023-01-09T03:45:10.460Z,506.52
2023-01-09T03:45:44.302Z,501.73
2023-01-09T03:46:17.747Z,499.67
2023-01-09T03:46:51.320Z,502.38
2023-01-09T03:47:24.709Z,503.38
2023-01-09T03:48:00.142Z,503.08
2023-01-09T03:48:33.618Z,496.27
2023-01-09T03:49:06.908Z,499.50
2023-01-09T03:49:40.610Z,493.80
2023-01-09T03:50:14.072Z,497.48
2023-01-09T03:50:49.116Z,500.92
2023-01-09T03:51:22.579Z,497.20
2023-01-09T03:51:55.865Z,497.90
2023-01-09T03:52:29.140Z,494.83
2023-01-09T03:53:03.034Z,494.77
2023-01-09T03:53:36.533Z,491.92
2023-01-09T03:54:10.108Z,501.60
2023-01-09T03:54:43.607Z,506.98
2023-01-09T03:55:16.874Z,507.65
2023-01-09T03:55:51.382Z,510.27
2023-01-09T03:56:26.096Z,502.67
2023-01-09T03:56:59.395Z,507.70
2023-01-09T03:57:32.764Z,502.90
2023-01-09T03:58:06.244Z,502.85
2023-01-09T03:58:39.626Z,502.50
2023-01-09T03:59:12.908Z,502.20
2023-01-09T03:59:46.292Z,500.67
2023-01-09T04:00:20.598Z,496.27
2023-01-09T04:00:58.961Z,498.15
2023-01-09T04:01:32.629Z,492.98
2023-01-09T04:02:06.168Z,496.23
2023-01-09T04:02:39.679Z,496.42
2023-01-09T04:03:13.552Z,496.38
2023-01-09T04:03:46.733Z,493.98
2023-01-09T04:04:20.009Z,495.48
2023-01-09T04:04:53.388Z,497.80
2023-01-09T04:05:29.136Z,497.52
2023-01-09T04:06:02.411Z,497.63
2023-01-09T04:06:35.793Z,492.33
2023-01-09T04:07:09.072Z,498.05
2023-01-09T04:07:42.350Z,496.05
2023-01-09T04:08:15.936Z,495.98
2023-01-09T04:08:49.420Z,494.95
2023-01-09T04:09:22.804Z,493.77
2023-01-09T04:09:56.146Z,495.02
2023-01-09T04:10:29.466Z,494.35
2023-01-09T04:11:02.848Z,496.33
2023-01-09T04:11:36.333Z,498.08
2023-01-09T04:12:09.720Z,494.27
2023-01-09T04:12:43.210Z,496.75
2023-01-09T04:13:16.686Z,493.77
2023-01-09T04:13:49.971Z,496.98
2023-01-09T04:14:23.348Z,496.08
2023-01-09T04:14:56.739Z,506.10
2023-01-09T04:15:30.018Z,507.13
2023-01-09T04:16:03.328Z,498.52
2023-01-09T04:16:36.829Z,501.63
2023-01-09T04:17:10.466Z,500.10
2023-01-09T04:17:43.648Z,500.67
2023-01-09T04:18:17.130Z,499.25
2023-01-09T04:18:50.614Z,497.17
2023-01-09T04:19:23.905Z,493.23
2023-01-09T04:19:57.384Z,499.90
2023-01-09T04:20:30.765Z,497.95
2023-01-09T04:21:04.144Z,497.27
2023-01-09T04:21:37.530Z,498.65
2023-01-09T04:22:11.115Z,497.58
2023-01-09T04:22:45.012Z,497.08
2023-01-09T04:23:18.618Z,494.05
2023-01-09T04:23:52.089Z,497.58
2023-01-09T04:24:25.264Z,497.42
2023-01-09T04:24:58.545Z,501.25
2023-01-09T04:25:31.925Z,498.85
2023-01-09T04:26:05.409Z,511.17
2023-01-09T04:26:38.901Z,517.35
2023-01-09T04:27:13.504Z,511.08
2023-01-09T04:27:49.224Z,513.40
2023-01-09T04:28:22.935Z,521.65
2023-01-09T04:28:56.219Z,514.80
2023-01-09T04:29:29.699Z,512.00
2023-01-09T04:30:02.881Z,510.80
2023-01-09T04:30:36.363Z,511.83
2023-01-09T04:31:09.546Z,511.23
2023-01-09T04:31:42.962Z,509.55
2023-01-09T04:32:16.412Z,513.53
2023-01-09T04:32:49.691Z,515.80
2023-01-09T04:33:22.867Z,512.70
2023-01-09T04:33:56.143Z,513.15
2023-01-09T04:34:29.430Z,501.63
2023-01-09T04:35:02.604Z,500.67
2023-01-09T04:35:36.187Z,499.17
2023-01-09T04:36:09.573Z,500.75
2023-01-09T04:36:43.779Z,500.02
2023-01-09T04:37:16.967Z,504.95
2023-01-09T04:37:50.339Z,511.65
2023-01-09T04:38:23.919Z,511.27
2023-01-09T04:38:57.202Z,517.97
2023-01-09T04:39:30.689Z,521.55
2023-01-09T04:40:14.043Z,517.55
2023-01-09T04:40:48.614Z,518.63
2023-01-09T04:41:40.119Z,518.65
2023-01-09T04:42:13.603Z,532.83
2023-01-09T04:42:47.194Z,524.70
2023-01-09T04:43:20.676Z,525.33
2023-01-09T04:43:53.858Z,524.17
2023-01-09T04:44:27.048Z,524.97
2023-01-09T04:45:00.315Z,523.30
2023-01-09T04:45:33.860Z,517.08
2023-01-09T04:46:07.253Z,514.20
2023-01-09T04:46:40.767Z,517.60
2023-01-09T04:47:14.255Z,514.88
2023-01-09T04:47:48.361Z,511.83
2023-01-09T04:48:21.637Z,513.88
2023-01-09T04:48:54.915Z,512.50
2023-01-09T04:49:28.210Z,513.50
2023-01-09T04:50:01.579Z,513.13
2023-01-09T04:50:35.067Z,515.58
2023-01-09T04:51:08.545Z,513.55
2023-01-09T04:51:42.027Z,508.63
2023-01-09T04:52:15.210Z,512.50
2023-01-09T04:52:48.598Z,514.45
2023-01-09T04:53:22.697Z,507.48
2023-01-09T04:53:56.277Z,508.70
2023-01-09T04:54:29.462Z,508.63
2023-01-09T04:55:02.878Z,522.55
2023-01-09T04:55:36.431Z,520.72
2023-01-09T04:56:09.709Z,521.28
2023-01-09T04:56:44.313Z,519.42
2023-01-09T04:57:17.805Z,517.15
2023-01-09T04:57:51.082Z,518.15
2023-01-09T04:58:24.369Z,516.40
2023-01-09T04:58:57.543Z,516.15
2023-01-09T04:59:31.026Z,519.20
2023-01-09T05:00:10.138Z,518.22
2023-01-09T05:00:43.529Z,517.03
2023-01-09T05:01:16.888Z,515.45
2023-01-09T05:01:52.936Z,518.05
2023-01-09T05:02:26.436Z,533.55
2023-01-09T05:02:59.617Z,525.80
2023-01-09T05:03:32.897Z,518.60
2023-01-09T05:04:06.772Z,529.50
2023-01-09T05:04:40.400Z,527.40
2023-01-09T05:05:13.762Z,524.45
2023-01-09T05:05:46.937Z,519.70
2023-01-09T05:06:20.421Z,520.70
2023-01-09T05:06:53.807Z,514.50
2023-01-09T05:07:27.398Z,520.28
2023-01-09T05:08:00.569Z,514.17
2023-01-09T05:08:33.957Z,516.50
2023-01-09T05:09:07.441Z,515.42
2023-01-09T05:09:40.817Z,516.92
2023-01-09T05:10:14.308Z,515.38
2023-01-09T05:10:47.695Z,518.78
2023-01-09T05:11:21.075Z,518.92
2023-01-09T05:11:54.513Z,512.35
2023-01-09T05:12:28.200Z,522.72
2023-01-09T05:13:01.626Z,518.78
2023-01-09T05:13:34.808Z,519.92
2023-01-09T05:14:08.190Z,517.47
2023-01-09T05:14:41.469Z,516.53
2023-01-09T05:15:14.752Z,512.83
2023-01-09T05:15:48.030Z,513.83
2023-01-09T05:16:22.002Z,511.00
2023-01-09T05:16:55.305Z,509.55
2023-01-09T05:17:28.891Z,506.65
2023-01-09T05:18:02.283Z,509.92
2023-01-09T05:18:35.558Z,508.48
2023-01-09T05:19:09.145Z,510.05
2023-01-09T05:19:43.139Z,522.72
2023-01-09T05:20:16.420Z,517.63
2023-01-09T05:20:50.219Z,526.78
2023-01-09T05:21:24.738Z,523.00
2023-01-09T05:21:58.207Z,525.28
2023-01-09T05:22:31.690Z,526.65
2023-01-09T05:23:04.885Z,525.80
2023-01-09T05:23:38.766Z,525.95
2023-01-09T05:24:12.558Z,522.15
2023-01-09T05:24:46.038Z,524.75
2023-01-09T05:25:19.324Z,525.25
2023-01-09T05:25:52.915Z,525.30
2023-01-09T05:26:26.651Z,518.85
2023-01-09T05:27:00.495Z,517.15
2023-01-09T05:27:33.773Z,511.15
2023-01-09T05:28:07.009Z,520.45
2023-01-09T05:28:40.437Z,507.67
2023-01-09T05:29:13.620Z,502.65
2023-01-09T05:29:47.199Z,501.45
2023-01-09T05:30:20.716Z,506.38
2023-01-09T05:30:54.374Z,506.35
2023-01-09T05:31:28.012Z,513.78
2023-01-09T05:32:01.349Z,503.58
2023-01-09T05:32:34.829Z,499.48
2023-01-09T05:33:08.212Z,504.58
2023-01-09T05:33:41.700Z,508.25
2023-01-09T05:34:15.183Z,506.73
2023-01-09T05:34:48.470Z,511.20
2023-01-09T05:35:21.740Z,519.75
2023-01-09T05:35:55.228Z,512.58
2023-01-09T05:36:28.917Z,513.75
2023-01-09T05:37:02.511Z,512.47
2023-01-09T05:37:35.894Z,511.35
2023-01-09T05:38:09.176Z,510.25
2023-01-09T05:38:42.658Z,511.50
2023-01-09T05:39:16.144Z,508.02
2023-01-09T05:39:49.422Z,510.60
2023-01-09T05:40:24.848Z,509.10
2023-01-09T05:41:02.226Z,506.42
2023-01-09T05:41:35.609Z,503.15
2023-01-09T05:42:08.893Z,503.75
2023-01-09T05:42:43.094Z,502.10
2023-01-09T05:43:16.275Z,503.08
2023-01-09T05:43:50.160Z,500.83
2023-01-09T05:44:23.442Z,500.08
2023-01-09T05:44:56.725Z,500.17
2023-01-09T05:45:30.144Z,499.73
2023-01-09T05:46:03.639Z,501.63
2023-01-09T05:46:36.974Z,500.50
2023-01-09T05:47:10.152Z,498.90
2023-01-09T05:47:45.067Z,499.25
2023-01-09T05:48:18.460Z,501.15
2023-01-09T05:48:51.939Z,499.10
2023-01-09T05:49:25.228Z,497.17
2023-01-09T05:49:58.704Z,495.88
2023-01-09T05:50:31.999Z,495.42
2023-01-09T05:51:05.371Z,495.58
2023-01-09T05:51:38.753Z,500.00
2023-01-09T05:52:12.133Z,498.10
2023-01-09T05:52:45.316Z,503.10
2023-01-09T05:53:18.794Z,500.10
2023-01-09T05:53:52.080Z,498.73
2023-01-09T05:54:25.559Z,495.00
2023-01-09T05:54:59.148Z,502.55
2023-01-09T05:55:32.426Z,498.42
2023-01-09T05:56:05.926Z,503.20
2023-01-09T05:56:38.992Z,503.73
2023-01-09T05:57:12.269Z,499.70
2023-01-09T05:57:45.865Z,499.90
2023-01-09T05:58:19.337Z,493.52
2023-01-09T05:58:52.616Z,492.77
2023-01-09T05:59:25.896Z,491.55
2023-01-09T05:59:59.293Z,492.20
2023-01-09T06:00:32.866Z,503.88
2023-01-09T06:01:06.517Z,501.23
2023-01-09T06:01:39.839Z,499.00
2023-01-09T06:02:13.381Z,498.80
2023-01-09T06:02:46.938Z,497.70
2023-01-09T06:03:20.193Z,498.90
2023-01-09T06:03:53.883Z,496.30
2023-01-09T06:04:30.434Z,492.13
2023-01-09T06:05:04.029Z,490.27
2023-01-09T06:05:37.408Z,496.23
2023-01-09T06:06:10.794Z,496.63
2023-01-09T06:06:44.175Z,493.67
2023-01-09T06:07:20.908Z,490.77
2023-01-09T06:07:55.342Z,495.77
2023-01-09T06:08:28.623Z,496.15
2023-01-09T06:09:02.076Z,495.42
2023-01-09T06:09:35.597Z,493.38
2023-01-09T06:10:11.432Z,495.85
2023-01-09T06:10:44.711Z,494.27
2023-01-09T06:11:17.993Z,496.60
2023-01-09T06:11:51.786Z,495.95
2023-01-09T06:12:24.963Z,491.27
2023-01-09T06:12:58.351Z,490.38
2023-01-09T06:13:31.524Z,494.27
2023-01-09T06:14:05.519Z,491.60
2023-01-09T06:14:38.904Z,495.50
2023-01-09T06:15:12.489Z,497.02
2023-01-09T06:15:47.767Z,495.58
2023-01-09T06:16:21.111Z,495.77
2023-01-09T06:16:55.199Z,492.45
2023-01-09T06:17:28.679Z,494.42
2023-01-09T06:18:02.209Z,497.73
2023-01-09T06:18:35.662Z,491.95
2023-01-09T06:19:09.442Z,491.83
2023-01-09T06:19:42.852Z,490.42
2023-01-09T06:20:16.628Z,486.50
2023-01-09T06:20:50.920Z,488.73
2023-01-09T06:21:24.416Z,485.02
2023-01-09T06:21:57.787Z,483.75
2023-01-09T06:22:31.330Z,487.77
2023-01-09T06:23:04.658Z,493.05
2023-01-09T06:23:38.140Z,488.83
2023-01-09T06:24:11.526Z,491.20
2023-01-09T06:24:44.802Z,490.20
2023-01-09T06:25:18.185Z,489.48
2023-01-09T06:25:51.770Z,485.08
2023-01-09T06:26:25.769Z,489.23
2023-01-09T06:26:59.069Z,487.23
2023-01-09T06:27:32.337Z,484.27
2023-01-09T06:28:05.824Z,487.20
2023-01-09T06:28:39.098Z,485.10
2023-01-09T06:29:12.687Z,487.73
2023-01-09T06:29:46.065Z,484.42
2023-01-09T06:30:19.991Z,486.17
2023-01-09T06:30:53.609Z,485.60
2023-01-09T06:31:27.353Z,485.83
2023-01-09T06:32:00.636Z,486.73
2023-01-09T06:32:34.008Z,485.27
2023-01-09T06:33:07.390Z,483.85
2023-01-09T06:33:40.873Z,483.40
2023-01-09T06:34:14.264Z,485.10
2023-01-09T06:34:47.532Z,483.88
2023-01-09T06:35:21.229Z,484.60
2023-01-09T06:35:54.714Z,480.40
2023-01-09T06:36:28.397Z,484.85
2023-01-09T06:37:01.680Z,482.27
2023-01-09T06:37:35.063Z,479.77
2023-01-09T06:38:08.647Z,480.60
2023-01-09T06:38:41.929Z,476.20
2023-01-09T06:39:15.515Z,477.27
2023-01-09T06:39:49.003Z,480.67
2023-01-09T06:40:22.588Z,484.15
2023-01-09T06:40:55.871Z,480.85
2023-01-09T06:41:29.260Z,483.17
2023-01-09T06:42:02.637Z,484.10
2023-01-09T06:42:35.916Z,483.15
2023-01-09T06:43:09.301Z,486.95
2023-01-09T06:43:42.479Z,488.77
2023-01-09T06:44:15.969Z,481.98
2023-01-09T06:44:49.248Z,483.02
2023-01-09T06:45:22.668Z,475.08
2023-01-09T06:45:56.057Z,480.52
2023-01-09T06:46:29.332Z,480.73
2023-01-09T06:47:03.284Z,482.75
2023-01-09T06:47:36.588Z,481.30
2023-01-09T06:48:10.762Z,478.00
2023-01-09T06:48:44.153Z,478.63
2023-01-09T06:49:18.555Z,478.63
2023-01-09T06:49:52.039Z,476.90
2023-01-09T06:50:25.422Z,478.98
2023-01-09T06:50:58.601Z,476.00
2023-01-09T06:51:31.983Z,477.85
2023-01-09T06:52:08.027Z,470.33
2023-01-09T06:52:41.720Z,485.17
2023-01-09T06:53:15.097Z,480.25
2023-01-09T06:53:48.684Z,483.10
2023-01-09T06:54:22.075Z,479.38
2023-01-09T06:54:55.454Z,477.40
2023-01-09T06:55:29.040Z,478.42
2023-01-09T06:56:05.529Z,476.98
2023-01-09T06:56:39.184Z,478.30
2023-01-09T06:57:12.873Z,475.98
2023-01-09T06:57:46.160Z,477.52
2023-01-09T06:58:19.637Z,474.55
2023-01-09T06:58:53.023Z,474.65
2023-01-09T06:59:26.316Z,474.52
2023-01-09T06:59:59.686Z,475.60
2023-01-09T07:00:33.069Z,477.00
2023-01-09T07:01:06.341Z,481.88
2023-01-09T07:01:42.930Z,477.17
2023-01-09T07:02:20.481Z,474.60
2023-01-09T07:02:53.671Z,479.40
2023-01-09T07:03:26.957Z,477.65
2023-01-09T07:04:00.373Z,477.17
2023-01-09T07:04:33.816Z,477.88
2023-01-09T07:05:09.049Z,480.17
2023-01-09T07:05:43.238Z,475.30
2023-01-09T07:06:16.633Z,479.15
2023-01-09T07:06:50.311Z,478.95
2023-01-09T07:07:23.909Z,476.42
2023-01-09T07:07:57.692Z,479.98
2023-01-09T07:08:31.169Z,473.85
2023-01-09T07:09:06.614Z,471.75
2023-01-09T07:09:40.087Z,470.35
2023-01-09T07:10:14.050Z,473.30
2023-01-09T07:10:47.368Z,468.48
2023-01-09T07:11:20.747Z,470.40
2023-01-09T07:11:54.134Z,469.77
2023-01-09T07:12:27.510Z,467.42
2023-01-09T07:13:00.795Z,467.90
2023-01-09T07:13:34.278Z,468.92
2023-01-09T07:14:07.558Z,468.70
2023-01-09T07:14:41.045Z,458.85
2023-01-09T07:15:14.427Z,467.77
2023-01-09T07:15:47.710Z,471.38
2023-01-09T07:16:21.136Z,471.35
2023-01-09T07:16:54.476Z,471.83
2023-01-09T07:17:27.748Z,476.60
2023-01-09T07:18:01.234Z,472.90
2023-01-09T07:18:34.722Z,472.00